createdAt,value
2018-05-19T00:00:02.173Z,11.73
2018-05-19T00:02:32.940Z,11.73
2018-05-19T00:05:03.737Z,11.69
2018-05-19T00:07:34.536Z,11.65
2018-05-19T00:10:05.321Z,11.56
2018-05-19T00:12:36.109Z,11.61
2018-05-19T00:15:06.894Z,11.64
2018-05-19T00:17:37.697Z,11.61
2018-05-19T00:20:08.460Z,11.65
2018-05-19T00:22:45.238Z,11.52
2018-05-19T00:25:16.044Z,11.61
2018-05-19T00:27:46.833Z,11.56
2018-05-19T00:30:17.587Z,11.52
2018-05-19T00:32:48.403Z,11.52
2018-05-19T00:35:19.147Z,11.43
2018-05-19T00:37:49.926Z,11.44
2018-05-19T00:40:20.729Z,11.46
2018-05-19T00:42:51.492Z,11.38
2018-05-19T00:45:22.292Z,11.43
2018-05-19T00:47:53.104Z,11.33
2018-05-19T00:50:23.903Z,11.27
2018-05-19T00:52:54.720Z,11.17
2018-05-19T00:55:25.515Z,10.95
2018-05-19T00:57:56.328Z,11.10
2018-05-19T01:00:27.150Z,11.13
2018-05-19T01:02:57.961Z,11.07
2018-05-19T01:05:28.814Z,11.05
2018-05-19T01:07:59.618Z,10.96
2018-05-19T01:10:30.418Z,10.94
2018-05-19T01:13:01.263Z,10.97
2018-05-19T01:15:32.069Z,10.98
2018-05-19T01:18:02.926Z,10.88
2018-05-19T01:20:33.734Z,10.82
2018-05-19T01:23:04.541Z,10.78
2018-05-19T01:25:35.360Z,10.78
2018-05-19T01:28:06.144Z,10.73
2018-05-19T01:30:36.952Z,10.73
2018-05-19T01:33:07.779Z,10.77
2018-05-19T01:35:38.599Z,10.73
2018-05-19T01:38:09.388Z,10.68
2018-05-19T01:40:40.247Z,10.64
2018-05-19T01:43:11.055Z,10.52
2018-05-19T01:45:41.874Z,10.46
2018-05-19T01:48:12.705Z,10.48
2018-05-19T01:50:43.529Z,10.39
2018-05-19T01:53:14.400Z,10.42
2018-05-19T01:55:45.191Z,10.40
2018-05-19T01:58:15.992Z,10.37
2018-05-19T02:00:46.777Z,10.34
2018-05-19T02:03:17.598Z,10.31
2018-05-19T02:05:48.384Z,10.29
2018-05-19T02:08:19.216Z,10.23
2018-05-19T02:10:50.012Z,10.25
2018-05-19T02:13:20.823Z,10.26
2018-05-19T02:15:51.623Z,10.17
2018-05-19T02:18:22.443Z,10.20
2018-05-19T02:20:53.236Z,10.28
2018-05-19T02:23:24.036Z,10.22
2018-05-19T02:25:54.849Z,10.07
2018-05-19T02:28:25.651Z,10.02
2018-05-19T02:30:56.442Z,10.18
2018-05-19T02:33:27.256Z,10.16
2018-05-19T02:35:58.050Z,10.16
2018-05-19T02:38:28.837Z,10.03
2018-05-19T02:40:59.626Z,9.90
2018-05-19T02:43:30.428Z,9.89
2018-05-19T02:46:01.229Z,9.89
2018-05-19T02:48:32.041Z,9.86
2018-05-19T02:51:02.849Z,9.85
2018-05-19T02:53:33.682Z,9.84
2018-05-19T02:56:04.502Z,9.77
2018-05-19T02:58:35.385Z,9.80
2018-05-19T03:01:06.190Z,9.79
2018-05-19T03:03:36.976Z,9.81
2018-05-19T03:06:07.893Z,9.72
2018-05-19T03:08:38.726Z,9.83
2018-05-19T03:11:09.532Z,9.78
2018-05-19T03:13:40.349Z,9.79
2018-05-19T03:16:11.239Z,9.73
2018-05-19T03:18:43.516Z,9.70
2018-05-19T03:21:14.340Z,9.67
2018-05-19T03:23:45.156Z,9.68
2018-05-19T03:26:16.311Z,9.68
2018-05-19T03:28:47.169Z,9.68
2018-05-19T03:31:18.017Z,9.52
2018-05-19T03:33:48.824Z,9.46
2018-05-19T03:36:19.623Z,9.50
2018-05-19T03:38:50.501Z,9.58
2018-05-19T03:41:21.353Z,9.67
2018-05-19T03:43:52.213Z,9.69
2018-05-19T03:46:23.083Z,9.72
2018-05-19T03:48:53.954Z,9.73
2018-05-19T03:51:24.742Z,9.81
2018-05-19T03:53:55.609Z,9.88
2018-05-19T03:56:26.387Z,9.94
2018-05-19T03:59:09.708Z,9.99
2018-05-19T04:01:52.840Z,10.01
2018-05-19T04:04:23.671Z,10.01
2018-05-19T04:06:54.495Z,10.05
2018-05-19T04:09:25.308Z,10.08
2018-05-19T04:11:56.165Z,10.16
2018-05-19T04:14:27.041Z,10.20
2018-05-19T04:16:57.841Z,10.31
2018-05-19T04:19:28.661Z,10.39
2018-05-19T04:21:59.460Z,10.43
2018-05-19T04:24:30.297Z,10.48
2018-05-19T04:27:01.122Z,10.52
2018-05-19T04:29:31.929Z,10.68
2018-05-19T04:32:03.604Z,10.82
2018-05-19T04:34:34.440Z,11.12
2018-05-19T04:37:05.248Z,11.53
2018-05-19T04:39:36.069Z,12.34
2018-05-19T04:42:06.869Z,12.97
2018-05-19T04:44:37.697Z,13.40
2018-05-19T04:47:08.487Z,13.42
2018-05-19T04:49:39.319Z,13.55
2018-05-19T04:52:10.125Z,14.01
2018-05-19T04:54:40.981Z,14.47
2018-05-19T04:57:11.775Z,14.97
2018-05-19T04:59:42.609Z,15.67
2018-05-19T05:02:13.414Z,15.47
2018-05-19T05:04:51.104Z,15.84
2018-05-19T05:07:22.020Z,16.19
2018-05-19T05:09:52.846Z,16.06
2018-05-19T05:12:24.581Z,16.53
2018-05-19T05:14:55.423Z,16.94
2018-05-19T05:17:26.203Z,17.62
2018-05-19T05:19:57.024Z,16.99
2018-05-19T05:22:27.830Z,18.31
2018-05-19T05:24:58.687Z,17.88
2018-05-19T05:27:29.456Z,17.41
2018-05-19T05:30:00.274Z,17.87
2018-05-19T05:32:31.056Z,18.13
2018-05-19T05:35:01.883Z,18.22
2018-05-19T05:37:32.732Z,19.10
2018-05-19T05:40:03.531Z,19.17
2018-05-19T05:42:34.326Z,19.00
2018-05-19T05:45:05.120Z,18.12
2018-05-19T05:47:35.910Z,17.26
2018-05-19T05:50:06.780Z,17.47
2018-05-19T05:52:37.556Z,18.15
2018-05-19T05:55:08.441Z,18.05
2018-05-19T05:57:39.239Z,18.14
2018-05-19T06:00:10.076Z,18.50
2018-05-19T06:02:40.888Z,19.02
2018-05-19T06:05:11.729Z,18.85
2018-05-19T06:07:42.537Z,18.30
2018-05-19T06:10:13.357Z,18.32
2018-05-19T06:12:44.146Z,17.99
2018-05-19T06:15:14.939Z,16.98
2018-05-19T06:17:45.732Z,16.25
2018-05-19T06:20:16.544Z,16.66
2018-05-19T06:22:47.339Z,16.90
2018-05-19T06:25:18.180Z,16.88
2018-05-19T06:27:49.110Z,17.01
2018-05-19T06:30:19.947Z,17.97
2018-05-19T06:32:50.753Z,18.58
2018-05-19T06:35:21.577Z,19.26
2018-05-19T06:37:52.364Z,20.07
2018-05-19T06:40:23.234Z,21.10
2018-05-19T06:42:54.097Z,21.09
2018-05-19T06:45:24.932Z,21.54
2018-05-19T06:47:55.926Z,20.97
2018-05-19T06:50:26.694Z,21.58
2018-05-19T06:52:57.529Z,22.04
2018-05-19T06:55:28.403Z,22.04
2018-05-19T06:57:59.244Z,22.57
2018-05-19T07:00:30.626Z,22.80
2018-05-19T07:03:01.473Z,23.03
2018-05-19T07:05:32.322Z,21.88
2018-05-19T07:08:03.233Z,22.20
2018-05-19T07:10:34.005Z,22.95
2018-05-19T07:13:04.807Z,23.99
2018-05-19T07:15:35.692Z,24.40
2018-05-19T07:18:06.552Z,24.54
2018-05-19T07:20:37.377Z,25.02
2018-05-19T07:23:08.325Z,23.62
2018-05-19T07:25:39.234Z,24.29
2018-05-19T07:28:10.113Z,24.84
2018-05-19T07:30:40.964Z,25.18
2018-05-19T07:33:11.790Z,26.30
2018-05-19T07:35:42.732Z,25.90
2018-05-19T07:38:13.499Z,26.86
2018-05-19T07:40:44.352Z,28.29
2018-05-19T07:43:15.148Z,27.27
2018-05-19T07:45:46.500Z,27.19
2018-05-19T07:48:17.396Z,26.27
2018-05-19T07:50:48.235Z,26.52
2018-05-19T07:53:19.024Z,27.34
2018-05-19T07:55:49.893Z,27.79
2018-05-19T07:58:20.762Z,27.08
2018-05-19T08:00:51.534Z,27.70
2018-05-19T08:03:22.424Z,28.17
2018-05-19T08:05:53.448Z,29.29
2018-05-19T08:08:24.309Z,29.42
2018-05-19T08:10:55.120Z,29.80
2018-05-19T08:13:25.979Z,28.49
2018-05-19T08:15:56.789Z,28.43
2018-05-19T08:18:27.614Z,28.28
2018-05-19T08:20:58.453Z,28.94
2018-05-19T08:23:29.343Z,29.31
2018-05-19T08:26:00.161Z,28.25
2018-05-19T08:28:30.984Z,27.84
2018-05-19T08:31:01.832Z,28.24
2018-05-19T08:33:32.623Z,27.83
2018-05-19T08:36:03.773Z,27.45
2018-05-19T08:38:34.592Z,26.45
2018-05-19T08:41:05.535Z,25.36
2018-05-19T08:43:36.345Z,25.74
2018-05-19T08:46:07.188Z,25.94
2018-05-19T08:48:38.026Z,27.07
2018-05-19T08:51:08.836Z,26.30
2018-05-19T08:53:39.659Z,26.90
2018-05-19T08:56:10.510Z,26.80
2018-05-19T08:58:41.315Z,26.74
2018-05-19T09:01:12.142Z,26.32
2018-05-19T09:03:42.937Z,25.76
2018-05-19T09:06:13.776Z,25.92
2018-05-19T09:08:44.615Z,25.12
2018-05-19T09:11:15.429Z,24.79
2018-05-19T09:13:46.254Z,25.54
2018-05-19T09:16:17.090Z,25.32
2018-05-19T09:18:47.868Z,25.25
2018-05-19T09:21:18.737Z,24.79
2018-05-19T09:23:49.544Z,25.54
2018-05-19T09:26:20.388Z,26.77
2018-05-19T09:28:51.202Z,27.17
2018-05-19T09:31:22.052Z,26.18
2018-05-19T09:33:52.940Z,25.22
2018-05-19T09:36:23.785Z,25.44
2018-05-19T09:38:54.678Z,25.09
2018-05-19T09:41:25.618Z,25.14
2018-05-19T09:43:56.429Z,25.67
2018-05-19T09:46:27.264Z,25.39
2018-05-19T09:48:58.096Z,26.25
2018-05-19T09:51:28.927Z,26.22
2018-05-19T09:53:59.797Z,27.05
2018-05-19T09:56:30.723Z,26.85
2018-05-19T09:59:01.557Z,26.59
2018-05-19T10:01:32.511Z,26.13
2018-05-19T10:04:03.364Z,26.67
2018-05-19T10:06:34.191Z,27.79
2018-05-19T10:09:05.058Z,28.25
2018-05-19T10:11:35.902Z,27.39
2018-05-19T10:14:06.715Z,28.00
2018-05-19T10:16:37.598Z,28.59
2018-05-19T10:19:08.508Z,29.22
2018-05-19T10:21:39.433Z,30.20
2018-05-19T10:24:10.244Z,30.14
2018-05-19T10:26:41.078Z,29.50
2018-05-19T10:29:11.932Z,29.76
2018-05-19T10:31:42.789Z,29.45
2018-05-19T10:34:13.612Z,29.35
2018-05-19T10:36:44.444Z,29.59
2018-05-19T10:39:15.288Z,30.40
2018-05-19T10:41:46.209Z,29.88
2018-05-19T10:44:16.949Z,29.17
2018-05-19T10:46:47.787Z,29.51
2018-05-19T10:49:18.612Z,29.41
2018-05-19T10:51:49.440Z,30.86
2018-05-19T10:54:20.251Z,30.25
2018-05-19T10:56:51.100Z,29.15
2018-05-19T10:59:21.923Z,28.03
2018-05-19T11:01:52.754Z,28.82
2018-05-19T11:04:23.570Z,28.96
2018-05-19T11:06:54.388Z,28.53
2018-05-19T11:09:25.252Z,27.86
2018-05-19T11:11:56.057Z,28.36
2018-05-19T11:14:26.895Z,28.69
2018-05-19T11:16:57.700Z,28.86
2018-05-19T11:19:28.515Z,28.98
2018-05-19T11:21:59.336Z,28.56
2018-05-19T11:24:30.127Z,28.95
2018-05-19T11:27:00.962Z,29.02
2018-05-19T11:29:31.753Z,27.41
2018-05-19T11:32:02.615Z,27.95
2018-05-19T11:34:33.429Z,27.28
2018-05-19T11:37:04.252Z,25.03
2018-05-19T11:39:35.085Z,23.52
2018-05-19T11:42:05.885Z,22.78
2018-05-19T11:44:36.710Z,22.23
2018-05-19T11:47:07.557Z,21.31
2018-05-19T11:49:38.405Z,21.83
2018-05-19T11:52:09.309Z,22.89
2018-05-19T11:54:40.117Z,22.02
2018-05-19T11:57:10.929Z,21.26
2018-05-19T11:59:41.736Z,20.73
2018-05-19T12:02:12.528Z,20.56
2018-05-19T12:04:43.307Z,21.49
2018-05-19T12:07:14.144Z,21.29
2018-05-19T12:09:44.955Z,21.31
2018-05-19T12:12:15.822Z,21.73
2018-05-19T12:14:46.570Z,21.21
2018-05-19T12:17:17.373Z,21.29
2018-05-19T12:19:48.199Z,21.65
2018-05-19T12:22:19.101Z,22.14
2018-05-19T12:24:49.912Z,21.86
2018-05-19T12:27:20.790Z,21.88
2018-05-19T12:29:51.596Z,21.83
2018-05-19T12:32:22.451Z,21.99
2018-05-19T12:34:53.271Z,22.21
2018-05-19T12:37:24.109Z,22.00
2018-05-19T12:39:54.932Z,21.92
2018-05-19T12:42:25.782Z,22.24
2018-05-19T12:44:56.584Z,23.17
2018-05-19T12:47:28.525Z,23.18
2018-05-19T12:50:03.732Z,23.30
2018-05-19T12:52:34.569Z,23.36
2018-05-19T12:55:05.376Z,23.70
2018-05-19T12:57:36.301Z,24.02
2018-05-19T13:00:07.141Z,25.29
2018-05-19T13:02:37.987Z,26.67
2018-05-19T13:05:08.801Z,26.55
2018-05-19T13:07:39.780Z,26.71
2018-05-19T13:10:10.682Z,26.24
2018-05-19T13:12:41.625Z,26.67
2018-05-19T13:15:12.415Z,26.34
2018-05-19T13:17:43.185Z,25.88
2018-05-19T13:20:14.010Z,27.08
2018-05-19T13:22:44.818Z,26.85
2018-05-19T13:25:15.661Z,27.09
2018-05-19T13:27:46.495Z,26.47
2018-05-19T13:30:17.297Z,27.01
2018-05-19T13:32:48.118Z,27.70
2018-05-19T13:35:18.930Z,28.37
2018-05-19T13:37:49.736Z,28.73
2018-05-19T13:40:20.544Z,27.38
2018-05-19T13:42:51.364Z,27.02
2018-05-19T13:45:22.145Z,26.62
2018-05-19T13:47:52.954Z,27.35
2018-05-19T13:50:23.792Z,27.71
2018-05-19T13:52:54.635Z,27.78
2018-05-19T13:55:25.432Z,27.95
2018-05-19T13:57:56.321Z,27.04
2018-05-19T14:00:27.023Z,27.93
2018-05-19T14:02:57.927Z,27.79
2018-05-19T14:05:28.748Z,28.17
2018-05-19T14:07:59.556Z,28.54
2018-05-19T14:10:30.359Z,29.04
2018-05-19T14:13:01.156Z,28.21
2018-05-19T14:15:31.953Z,28.54
2018-05-19T14:18:02.824Z,28.50
2018-05-19T14:20:33.616Z,27.84
2018-05-19T14:23:04.438Z,27.60
2018-05-19T14:25:35.226Z,24.80
2018-05-19T14:28:06.066Z,23.73
2018-05-19T14:30:36.853Z,24.08
2018-05-19T14:33:07.712Z,24.98
2018-05-19T14:35:38.500Z,25.08
2018-05-19T14:38:09.332Z,25.36
2018-05-19T14:40:40.139Z,25.10
2018-05-19T14:43:10.956Z,23.92
2018-05-19T14:45:41.732Z,23.04
2018-05-19T14:48:13.350Z,21.96
2018-05-19T14:50:44.130Z,21.83
2018-05-19T14:53:15.084Z,21.89
2018-05-19T14:55:45.845Z,21.34
2018-05-19T14:58:16.685Z,20.56
2018-05-19T15:00:47.479Z,20.49
2018-05-19T15:03:18.308Z,20.59
2018-05-19T15:05:49.158Z,20.33
2018-05-19T15:08:19.984Z,20.43
2018-05-19T15:10:50.791Z,20.64
2018-05-19T15:13:21.604Z,20.65
2018-05-19T15:15:52.392Z,20.47
2018-05-19T15:18:23.224Z,20.30
2018-05-19T15:20:54.043Z,20.20
2018-05-19T15:23:24.878Z,20.08
2018-05-19T15:25:55.661Z,20.28
2018-05-19T15:28:26.474Z,20.29
2018-05-19T15:30:57.276Z,20.49
2018-05-19T15:33:28.066Z,19.82
2018-05-19T15:35:59.714Z,20.19
2018-05-19T15:38:30.560Z,19.99
2018-05-19T15:41:01.348Z,19.64
2018-05-19T15:43:32.174Z,19.66
2018-05-19T15:46:03.002Z,19.84
2018-05-19T15:48:33.864Z,19.96
2018-05-19T15:51:04.677Z,20.21
2018-05-19T15:53:35.520Z,19.67
2018-05-19T15:56:06.407Z,19.81
2018-05-19T15:58:37.192Z,19.81
2018-05-19T16:01:08.018Z,19.65
2018-05-19T16:03:38.878Z,19.90
2018-05-19T16:06:09.711Z,20.03
2018-05-19T16:08:40.574Z,19.88
2018-05-19T16:11:11.483Z,19.62
2018-05-19T16:13:42.306Z,19.42
2018-05-19T16:16:13.145Z,19.39
2018-05-19T16:18:44.072Z,19.24
2018-05-19T16:21:14.934Z,19.18
2018-05-19T16:23:45.909Z,19.62
2018-05-19T16:26:16.791Z,19.18
2018-05-19T16:28:47.717Z,19.17
2018-05-19T16:31:18.584Z,19.10
2018-05-19T16:33:49.422Z,19.09
2018-05-19T16:36:20.281Z,19.37
2018-05-19T16:38:51.152Z,19.37
2018-05-19T16:41:21.940Z,18.95
2018-05-19T16:43:52.784Z,18.89
2018-05-19T16:46:23.718Z,18.91
2018-05-19T16:48:54.566Z,18.93
2018-05-19T16:51:25.400Z,19.01
2018-05-19T16:53:56.277Z,18.84
2018-05-19T16:56:27.093Z,18.80
2018-05-19T16:58:57.948Z,18.73
2018-05-19T17:01:28.798Z,18.75
2018-05-19T17:03:59.625Z,18.71
2018-05-19T17:06:30.478Z,18.60
2018-05-19T17:09:01.345Z,18.46
2018-05-19T17:11:32.204Z,18.36
2018-05-19T17:14:03.079Z,18.40
2018-05-19T17:16:33.915Z,18.39
2018-05-19T17:19:04.765Z,18.32
2018-05-19T17:21:35.645Z,18.29
2018-05-19T17:24:06.509Z,18.23
2018-05-19T17:26:37.382Z,18.36
2018-05-19T17:29:08.344Z,18.28
2018-05-19T17:31:39.160Z,18.04
2018-05-19T17:34:10.016Z,18.04
2018-05-19T17:36:40.980Z,17.88
2018-05-19T17:39:11.958Z,17.94
2018-05-19T17:41:43.098Z,17.65
2018-05-19T17:44:13.937Z,17.67
2018-05-19T17:46:44.901Z,17.67
2018-05-19T17:49:15.851Z,17.56
2018-05-19T17:51:46.734Z,17.59
2018-05-19T17:54:17.510Z,17.57
2018-05-19T17:56:48.327Z,17.39
2018-05-19T17:59:19.288Z,17.44
2018-05-19T18:01:50.119Z,17.29
2018-05-19T18:04:20.951Z,17.23
2018-05-19T18:06:51.855Z,17.25
2018-05-19T18:09:22.687Z,17.16
2018-05-19T18:11:53.528Z,17.20
2018-05-19T18:14:24.370Z,17.03
2018-05-19T18:16:55.193Z,17.03
2018-05-19T18:19:26.019Z,16.99
2018-05-19T18:21:56.861Z,16.87
2018-05-19T18:24:27.733Z,16.87
2018-05-19T18:26:58.546Z,16.77
2018-05-19T18:29:29.470Z,16.84
2018-05-19T18:32:00.189Z,16.74
2018-05-19T18:34:31.025Z,16.74
2018-05-19T18:37:01.832Z,16.66
2018-05-19T18:39:32.676Z,16.60
2018-05-19T18:42:03.538Z,16.58
2018-05-19T18:44:34.441Z,16.44
2018-05-19T18:47:05.190Z,16.46
2018-05-19T18:49:36.047Z,16.37
2018-05-19T18:52:06.894Z,16.35
2018-05-19T18:54:37.821Z,16.32
2018-05-19T18:57:08.662Z,16.29
2018-05-19T18:59:39.497Z,16.22
2018-05-19T19:02:10.348Z,16.17
2018-05-19T19:04:41.192Z,16.05
2018-05-19T19:07:12.034Z,16.01
2018-05-19T19:09:43.057Z,16.02
2018-05-19T19:12:13.856Z,15.98
2018-05-19T19:14:44.661Z,15.89
2018-05-19T19:17:15.474Z,15.83
2018-05-19T19:19:46.330Z,15.75
2018-05-19T19:22:17.203Z,15.76
2018-05-19T19:24:48.072Z,15.73
2018-05-19T19:27:18.901Z,15.73
2018-05-19T19:29:49.753Z,15.67
2018-05-19T19:32:20.655Z,15.70
2018-05-19T19:34:51.423Z,15.60
2018-05-19T19:37:22.349Z,15.65
2018-05-19T19:39:53.217Z,15.63
2018-05-19T19:42:24.061Z,15.67
2018-05-19T19:44:55.226Z,15.67
2018-05-19T19:47:26.099Z,15.68
2018-05-19T19:49:57.067Z,15.65
2018-05-19T19:52:28.804Z,15.62
2018-05-19T19:54:59.650Z,15.67
2018-05-19T19:57:30.464Z,15.61
2018-05-19T20:00:01.308Z,15.58
2018-05-19T20:02:32.153Z,15.58
2018-05-19T20:05:02.991Z,15.59
2018-05-19T20:07:33.874Z,15.59
2018-05-19T20:10:04.688Z,15.56
2018-05-19T20:12:35.496Z,15.52
2018-05-19T20:15:06.364Z,15.48
2018-05-19T20:17:37.203Z,15.49
2018-05-19T20:20:08.061Z,15.41
2018-05-19T20:22:38.922Z,15.38
2018-05-19T20:25:09.772Z,15.36
2018-05-19T20:27:40.612Z,15.46
2018-05-19T20:30:11.462Z,15.52
2018-05-19T20:32:42.288Z,15.60
2018-05-19T20:35:13.138Z,15.42
2018-05-19T20:37:43.962Z,15.53
2018-05-19T20:40:14.821Z,15.40
2018-05-19T20:42:45.625Z,15.41
2018-05-19T20:45:16.530Z,15.35
2018-05-19T20:47:47.305Z,15.29
2018-05-19T20:50:19.217Z,15.22
2018-05-19T20:52:50.030Z,15.23
2018-05-19T20:55:20.861Z,15.19
2018-05-19T20:57:51.660Z,15.07
2018-05-19T21:00:22.476Z,15.08
2018-05-19T21:02:53.352Z,15.06
2018-05-19T21:05:24.167Z,15.09
2018-05-19T21:07:54.990Z,15.14
2018-05-19T21:10:25.879Z,15.14
2018-05-19T21:12:56.705Z,15.09
2018-05-19T21:15:27.604Z,15.10
2018-05-19T21:17:58.403Z,15.16
2018-05-19T21:20:29.224Z,15.13
2018-05-19T21:23:00.037Z,15.05
2018-05-19T21:25:30.881Z,15.03
2018-05-19T21:28:01.689Z,15.05
2018-05-19T21:30:32.565Z,15.10
2018-05-19T21:33:03.383Z,15.07
2018-05-19T21:35:34.217Z,15.01
2018-05-19T21:38:05.025Z,14.90
2018-05-19T21:40:35.840Z,14.85
2018-05-19T21:43:06.665Z,14.82
2018-05-19T21:45:37.477Z,14.70
2018-05-19T21:48:08.291Z,14.69
2018-05-19T21:50:39.157Z,14.71
2018-05-19T21:53:09.973Z,14.74
2018-05-19T21:55:40.784Z,14.66
2018-05-19T21:58:11.584Z,14.60
2018-05-19T22:00:42.411Z,14.57
2018-05-19T22:03:13.228Z,14.53
2018-05-19T22:05:44.029Z,14.57
2018-05-19T22:08:14.822Z,14.57
2018-05-19T22:10:45.684Z,14.56
2018-05-19T22:13:16.465Z,14.53
2018-05-19T22:15:47.296Z,14.61
2018-05-19T22:18:18.122Z,14.53
2018-05-19T22:20:49.063Z,14.55
2018-05-19T22:23:19.851Z,14.52
2018-05-19T22:25:50.747Z,14.46
2018-05-19T22:28:21.547Z,14.44
2018-05-19T22:30:52.351Z,14.55
2018-05-19T22:33:23.147Z,14.55
2018-05-19T22:35:53.995Z,14.53
2018-05-19T22:38:24.804Z,14.49
2018-05-19T22:40:55.609Z,14.35
2018-05-19T22:43:26.401Z,14.29
2018-05-19T22:45:57.197Z,14.20
2018-05-19T22:48:28.021Z,14.10
2018-05-19T22:50:58.832Z,14.04
2018-05-19T22:53:29.598Z,13.96
2018-05-19T22:56:00.485Z,13.92
2018-05-19T22:58:31.284Z,13.93
2018-05-19T23:01:02.111Z,13.97
2018-05-19T23:03:32.895Z,13.94
2018-05-19T23:06:03.728Z,13.94
2018-05-19T23:08:34.510Z,13.87
2018-05-19T23:11:05.307Z,13.76
2018-05-19T23:13:36.114Z,13.85
2018-05-19T23:16:06.961Z,13.94
2018-05-19T23:18:37.820Z,13.86
2018-05-19T23:21:08.630Z,13.84
2018-05-19T23:23:39.409Z,13.84
2018-05-19T23:26:10.248Z,13.91
2018-05-19T23:28:41.054Z,13.92
2018-05-19T23:31:11.893Z,13.90
2018-05-19T23:33:42.715Z,13.86
2018-05-19T23:36:13.531Z,13.80
2018-05-19T23:38:44.297Z,13.84
2018-05-19T23:41:15.116Z,13.82
2018-05-19T23:43:45.919Z,13.72
2018-05-19T23:46:16.719Z,13.76
2018-05-19T23:48:47.555Z,13.77
2018-05-19T23:51:18.436Z,13.82
2018-05-19T23:53:49.232Z,13.76
2018-05-19T23:56:20.078Z,13.68
2018-05-19T23:58:50.860Z,13.77
